Rouyn Noranda Airport
CYUY : rendu visible

Aérodrome :











RETROUVEZ-NOUS SUR...

 
LOGIN :

S'inscrire | Disclaimer

   EN    FR    IT 

 









Légende :    VFR   VFR Marginal   IFR   IFR Intensif   IFR Très Intensif
Visi : 
Plafond : 
>= 8 km
>= 3000ft
5 à 8 km
1000 à 3000 ft
1500m à 5 km
500 à 1000 ft
800 à 1500m
200 à 500 ft
< 800m
< 200 ft
Symboles :   Orages  Brouillard  Fortes neiges  Fortes précipitations  Vent > 20 kt






- Altitude de l'aérodrome : 988 ft
- Code IATA : YUY


CYUY - Rouyn Noranda

DERNIER METAR :
  • 040900Z 30005KT 3SM -RADZ OVC007 09/08 A2970 RMK SF8 -RA PCPN VRY LGT SLP065

METARs EXPIRÉS :
  • 040800Z CCA 28005KT 15SM -RADZ OVC008 09/09 A2969 RMK SF8 -RA INTMT SLP061
  • 040725Z 28005KT 15SM OVC012 09/09 A2968 RMK SC8 SLP058
  • 040700Z 29005KT 15SM -RA SCT006 OVC018 09/09 A2968 RMK SF4SC4 PCPN VRY LGT SLP058

TAF TAF CYUY
Valide du 04 à 06h jusqu'au 04 à 18h UTC


040538Z 0406/0418 30010KT 3SM -DZ -RA BR BKN006 OVC012
TEMPO 0406/0412 P6SM NSW SCT006 OVC012
FM041200 30008KT P6SM OVC012
TEMPO 0412/0415 OVC025
FM041500 29010KT P6SM BKN040
BECMG 0416/0418 28010G20KT RMK NXT FCST BY 041200Z
FIR CZUL / Amérique du Nord



MET'MAP, la Météo Aéronautique d'un coup d'oeil ! - Copyright ORBIFLY Décembre 2007 - Disclaimer

ORBIFLY MET'MAP TEAM :

Programmation & Développement : Alexandra Zaïnal
Sur une idée originale de : Baudouin d'Aumeries
Assistance à la programmation : Marc-Olivier Méhu
Soutien technique & logistique : Manuel Goepfert

Contact : metmap@orbifly.com




SOURCES & CREDITS :

   NOAA       Earth
Advisory